Home

PKWA Terminal Aerodrome Forecast (TAF)small logo


TAF provided by NWS Guam
2015/03/29 12:43
TAF PKWA 291133Z 2912/3012 05015G25KT P6SM VCSH SCT018 SCT035 SCT120

      



Site Map | Contact Us | Copyright © 2007 Atmospheric Technology Services Company. All rights reserved.